Time;durP1;ratioP1;P1;durP2;ratioP2;P2;SDS_P1;SDS_P2;PMS_P1;PMS_P2;Temp;Humidity;BMP_temperature;BMP_pressure;BME280_temperature;BME280_humidity;BME280_pressure;Samples;Min_cycle;Max_cycle;Signal;HPM_P1;HPM_P2
2023/03/09 00:01:20;;;;;;;41.25;23.13;;;;;;;;;;5136907;27;20638;-69
2023/03/09 00:03:47;;;;;;;40.72;23.08;;;;;;;;;;5137575;27;20220;-68
2023/03/09 00:06:16;;;;;;;40.90;23.00;;;;;;;;;;5135674;27;20199;-69
2023/03/09 00:08:43;;;;;;;43.22;23.10;;;;;;;;;;5136479;27;20193;-69
2023/03/09 00:11:11;;;;;;;39.05;23.00;;;;;;;;;;5136033;27;20202;-69
2023/03/09 00:13:38;;;;;;;44.80;23.33;;;;;;;;;;5136713;27;20194;-69
2023/03/09 00:16:09;;;;;;;39.10;23.27;;;;;;;;;;5136055;27;20639;-69
2023/03/09 00:18:37;;;;;;;38.78;23.45;;;;;;;;;;5136115;27;20679;-69
2023/03/09 00:21:05;;;;;;;44.70;23.38;;;;;;;;;;5136380;27;20198;-69
2023/03/09 00:23:33;;;;;;;36.08;21.77;;;;;;;;;;5136473;27;20193;-69
2023/03/09 00:26:05;;;;;;;42.75;24.42;;;;;;;;;;5136524;27;20278;-69
2023/03/09 00:28:32;;;;;;;33.25;18.58;;;;;;;;;;5135675;27;20239;-69
2023/03/09 00:31:02;;;;;;;38.80;22.92;;;;;;;;;;5135954;27;20190;-69
2023/03/09 00:33:29;;;;;;;38.20;21.02;;;;;;;;;;5135814;27;20193;-70
2023/03/09 00:35:57;;;;;;;42.35;23.33;;;;;;;;;;5135475;27;20197;-70
2023/03/09 00:38:24;;;;;;;38.08;21.33;;;;;;;;;;5136097;27;20280;-69
2023/03/09 00:40:52;;;;;;;40.20;22.63;;;;;;;;;;5135803;27;20200;-69
2023/03/09 00:43:20;;;;;;;40.15;24.00;;;;;;;;;;5135890;27;20197;-70
2023/03/09 00:45:47;;;;;;;39.15;23.05;;;;;;;;;;5135622;27;20200;-69
2023/03/09 00:48:15;;;;;;;42.70;25.73;;;;;;;;;;5135881;27;20214;-69
2023/03/09 00:50:42;;;;;;;39.47;23.90;;;;;;;;;;5136490;27;20224;-69
2023/03/09 00:53:09;;;;;;;46.03;22.80;;;;;;;;;;5135766;27;20193;-69
2023/03/09 00:55:36;;;;;;;39.80;23.65;;;;;;;;;;5136495;27;20195;-69
2023/03/09 00:58:05;;;;;;;39.58;23.20;;;;;;;;;;5135160;27;20196;-69
2023/03/09 01:00:33;;;;;;;40.47;21.67;;;;;;;;;;5136085;27;20532;-69
2023/03/09 01:03:01;;;;;;;37.72;23.25;;;;;;;;;;5135470;27;20190;-70
2023/03/09 01:05:28;;;;;;;41.85;24.65;;;;;;;;;;5135624;27;20216;-70
2023/03/09 01:07:55;;;;;;;43.83;23.15;;;;;;;;;;5135068;27;20231;-70
2023/03/09 01:10:22;;;;;;;38.75;22.70;;;;;;;;;;5135938;27;20571;-69
2023/03/09 01:12:50;;;;;;;41.95;22.63;;;;;;;;;;5135458;27;20187;-69
2023/03/09 01:15:18;;;;;;;39.88;22.50;;;;;;;;;;5136075;27;20185;-69
2023/03/09 01:17:47;;;;;;;43.08;23.80;;;;;;;;;;5135368;27;20197;-69
2023/03/09 01:20:14;;;;;;;39.03;21.52;;;;;;;;;;5135595;27;20197;-69
2023/03/09 01:22:42;;;;;;;42.28;21.65;;;;;;;;;;5135081;27;20189;-69
2023/03/09 01:25:09;;;;;;;41.97;23.35;;;;;;;;;;5135201;27;20190;-69
2023/03/09 01:27:36;;;;;;;41.65;23.20;;;;;;;;;;5134728;27;20670;-69
2023/03/09 01:30:04;;;;;;;48.78;24.88;;;;;;;;;;5135021;27;20205;-69
2023/03/09 01:32:33;;;;;;;43.70;24.65;;;;;;;;;;5135103;27;20281;-69
2023/03/09 01:35:00;;;;;;;47.85;24.02;;;;;;;;;;5135517;27;20188;-69
2023/03/09 01:37:27;;;;;;;44.20;23.75;;;;;;;;;;5135234;27;20217;-69
2023/03/09 01:39:54;;;;;;;51.72;25.63;;;;;;;;;;5134957;27;20204;-70
2023/03/09 01:42:21;;;;;;;46.15;24.45;;;;;;;;;;5135015;27;20197;-70
2023/03/09 01:45:03;;;;;;;44.03;22.98;;;;;;;;;;5134654;27;20192;-69
2023/03/09 01:47:32;;;;;;;53.20;23.73;;;;;;;;;;5134349;27;20189;-69
2023/03/09 01:50:00;;;;;;;45.75;24.48;;;;;;;;;;5134769;27;20222;-69
2023/03/09 01:52:29;;;;;;;44.10;24.50;;;;;;;;;;5134960;27;20219;-69
2023/03/09 01:54:58;;;;;;;49.58;25.92;;;;;;;;;;5135002;27;20196;-68
2023/03/09 01:57:28;;;;;;;46.42;24.30;;;;;;;;;;5134932;27;20243;-70
2023/03/09 01:59:57;;;;;;;47.38;25.30;;;;;;;;;;5134901;27;20190;-70
2023/03/09 02:02:26;;;;;;;43.88;24.98;;;;;;;;;;5134742;27;20199;-70
2023/03/09 02:04:56;;;;;;;49.45;22.92;;;;;;;;;;5134531;27;20547;-69
2023/03/09 02:07:25;;;;;;;40.17;23.35;;;;;;;;;;5134043;27;20194;-70
2023/03/09 02:09:54;;;;;;;53.88;26.42;;;;;;;;;;5133484;27;20214;-69
2023/03/09 02:12:22;;;;;;;49.67;24.60;;;;;;;;;;5134599;27;20189;-69
2023/03/09 02:14:49;;;;;;;49.80;25.10;;;;;;;;;;5134556;27;20222;-69
2023/03/09 02:17:17;;;;;;;55.65;29.00;;;;;;;;;;5134159;27;20286;-69
2023/03/09 02:20:04;;;;;;;67.15;30.13;;;;;;;;;;5134119;27;20646;-69
2023/03/09 02:22:31;;;;;;;61.58;30.15;;;;;;;;;;5134651;27;20182;-69
2023/03/09 02:25:02;;;;;;;59.33;27.35;;;;;;;;;;5134010;27;20216;-69
2023/03/09 02:27:31;;;;;;;51.13;24.02;;;;;;;;;;5133820;27;20368;-69
2023/03/09 02:29:59;;;;;;;58.00;27.92;;;;;;;;;;5134139;27;20316;-70
2023/03/09 02:32:26;;;;;;;54.25;29.42;;;;;;;;;;5134633;27;20190;-69
2023/03/09 02:34:55;;;;;;;57.70;27.45;;;;;;;;;;5133772;27;20200;-69
2023/03/09 02:37:31;;;;;;;56.85;28.55;;;;;;;;;;5134024;27;20672;-69
2023/03/09 02:40:00;;;;;;;57.17;29.35;;;;;;;;;;5134024;27;20219;-70
2023/03/09 02:42:28;;;;;;;49.15;26.48;;;;;;;;;;5133683;27;20643;-69
2023/03/09 02:44:57;;;;;;;53.25;28.77;;;;;;;;;;5133807;27;20213;-69
2023/03/09 02:47:25;;;;;;;59.33;27.17;;;;;;;;;;5134107;27;20201;-69
2023/03/09 02:49:52;;;;;;;56.53;28.20;;;;;;;;;;5133635;27;20204;-69
2023/03/09 02:52:19;;;;;;;56.13;27.75;;;;;;;;;;5133735;27;20202;-69
2023/03/09 02:54:46;;;;;;;56.53;29.30;;;;;;;;;;5133998;27;20296;-69
2023/03/09 02:57:13;;;;;;;59.13;29.00;;;;;;;;;;5133973;27;20253;-69
2023/03/09 02:59:41;;;;;;;63.28;30.17;;;;;;;;;;5133894;27;20415;-69
2023/03/09 03:02:09;;;;;;;56.72;27.17;;;;;;;;;;5133576;27;20657;-69
2023/03/09 03:04:37;;;;;;;56.75;28.15;;;;;;;;;;5133697;27;20281;-69
2023/03/09 03:07:04;;;;;;;62.03;29.80;;;;;;;;;;5133625;27;20271;-69
2023/03/09 03:09:31;;;;;;;53.13;27.05;;;;;;;;;;5133941;28;20197;-69
2023/03/09 03:11:58;;;;;;;61.47;31.40;;;;;;;;;;5134282;28;20193;-69
2023/03/09 03:14:26;;;;;;;59.92;29.95;;;;;;;;;;5133427;28;20187;-69
2023/03/09 03:16:53;;;;;;;51.10;27.35;;;;;;;;;;5133531;28;20192;-69
2023/03/09 03:19:21;;;;;;;65.85;29.50;;;;;;;;;;5133649;28;20217;-69
2023/03/09 03:21:49;;;;;;;58.75;27.52;;;;;;;;;;5137176;27;20632;-69
2023/03/09 03:24:16;;;;;;;58.70;28.20;;;;;;;;;;5137575;27;20274;-69
2023/03/09 03:26:43;;;;;;;53.25;26.75;;;;;;;;;;5137957;27;20193;-69
2023/03/09 03:29:11;;;;;;;59.60;29.83;;;;;;;;;;5137456;27;20220;-69
2023/03/09 03:31:38;;;;;;;49.95;25.85;;;;;;;;;;5137770;27;20268;-69
2023/03/09 03:34:05;;;;;;;53.53;26.83;;;;;;;;;;5137660;27;20201;-69
2023/03/09 03:36:34;;;;;;;54.40;27.23;;;;;;;;;;5137455;27;20196;-69
2023/03/09 03:39:01;;;;;;;59.50;29.98;;;;;;;;;;5137633;27;20194;-69
2023/03/09 03:41:28;;;;;;;57.78;29.02;;;;;;;;;;5137354;27;20223;-69
2023/03/09 03:43:55;;;;;;;55.70;29.10;;;;;;;;;;5137589;27;20242;-69
2023/03/09 03:46:22;;;;;;;59.85;28.88;;;;;;;;;;5137643;27;20200;-69
2023/03/09 03:48:49;;;;;;;54.70;25.85;;;;;;;;;;5137430;27;20184;-70
2023/03/09 03:51:17;;;;;;;51.90;27.83;;;;;;;;;;5137504;27;20213;-69
2023/03/09 03:53:45;;;;;;;50.60;26.38;;;;;;;;;;5137127;27;20200;-69
2023/03/09 03:56:12;;;;;;;61.10;26.27;;;;;;;;;;5137439;27;20216;-69
2023/03/09 03:58:39;;;;;;;55.72;27.35;;;;;;;;;;5137550;27;20195;-69
2023/03/09 04:01:07;;;;;;;48.13;26.50;;;;;;;;;;5137269;27;20199;-69
2023/03/09 04:03:34;;;;;;;46.08;25.17;;;;;;;;;;5137101;27;20217;-69
2023/03/09 04:06:02;;;;;;;47.70;26.65;;;;;;;;;;5136878;27;20192;-69
2023/03/09 04:08:29;;;;;;;47.13;24.63;;;;;;;;;;5136900;27;20277;-69
2023/03/09 04:10:58;;;;;;;47.85;25.08;;;;;;;;;;5136736;27;20209;-70
2023/03/09 04:13:25;;;;;;;50.60;28.27;;;;;;;;;;5137087;27;20196;-69
2023/03/09 04:15:52;;;;;;;52.67;26.52;;;;;;;;;;5136623;27;20200;-69
2023/03/09 04:18:19;;;;;;;45.28;25.60;;;;;;;;;;5137022;27;20192;-69
2023/03/09 04:20:47;;;;;;;53.70;25.42;;;;;;;;;;5136989;27;20193;-68
2023/03/09 04:23:14;;;;;;;44.13;23.60;;;;;;;;;;5137352;27;20221;-69
2023/03/09 04:25:41;;;;;;;44.10;25.40;;;;;;;;;;5136757;27;20185;-68
2023/03/09 04:28:09;;;;;;;53.65;28.80;;;;;;;;;;5135199;27;20185;-69
2023/03/09 04:30:37;;;;;;;42.70;22.67;;;;;;;;;;5135961;27;20547;-68
2023/03/09 04:33:04;;;;;;;44.30;24.30;;;;;;;;;;5135184;27;20502;-68
2023/03/09 04:35:31;;;;;;;43.88;23.70;;;;;;;;;;5135926;27;20213;-69
2023/03/09 04:37:58;;;;;;;45.80;26.77;;;;;;;;;;5135938;27;20197;-68
2023/03/09 04:40:25;;;;;;;46.00;24.65;;;;;;;;;;5135879;27;20197;-68
2023/03/09 04:42:52;;;;;;;41.05;24.13;;;;;;;;;;5136015;27;20190;-68
2023/03/09 04:45:21;;;;;;;51.67;28.10;;;;;;;;;;5135964;27;20190;-68
2023/03/09 04:47:48;;;;;;;46.92;25.17;;;;;;;;;;5135643;27;20204;-68
2023/03/09 04:50:15;;;;;;;45.40;26.00;;;;;;;;;;5135776;27;20196;-69
2023/03/09 04:52:42;;;;;;;46.85;23.70;;;;;;;;;;5135904;27;20186;-68
2023/03/09 04:55:10;;;;;;;46.17;23.88;;;;;;;;;;5135457;27;20280;-69
2023/03/09 04:57:37;;;;;;;41.58;25.40;;;;;;;;;;5135753;27;20190;-69
2023/03/09 05:00:07;;;;;;;49.53;22.58;;;;;;;;;;5135545;27;20190;-69
2023/03/09 05:02:36;;;;;;;43.20;24.30;;;;;;;;;;5136270;27;20181;-68
2023/03/09 05:05:03;;;;;;;38.92;24.10;;;;;;;;;;5135684;27;20221;-68
2023/03/09 05:07:30;;;;;;;48.90;25.85;;;;;;;;;;5135608;27;20207;-68
2023/03/09 05:09:58;;;;;;;40.53;24.35;;;;;;;;;;5135462;27;20295;-68
2023/03/09 05:12:30;;;;;;;49.10;26.90;;;;;;;;;;5135326;27;20218;-69
2023/03/09 05:14:58;;;;;;;52.83;26.77;;;;;;;;;;5135526;27;20182;-68
2023/03/09 05:17:25;;;;;;;49.20;26.85;;;;;;;;;;5135635;27;20242;-68
2023/03/09 05:19:54;;;;;;;48.47;25.98;;;;;;;;;;5135640;27;20288;-69
2023/03/09 05:22:21;;;;;;;45.22;24.20;;;;;;;;;;5135523;27;20519;-68
2023/03/09 05:24:48;;;;;;;43.47;24.92;;;;;;;;;;5135932;27;20302;-68
2023/03/09 05:27:16;;;;;;;40.70;22.60;;;;;;;;;;5135165;27;20192;-68
2023/03/09 05:29:43;;;;;;;45.90;26.67;;;;;;;;;;5135094;27;20211;-69
2023/03/09 05:32:10;;;;;;;47.60;24.13;;;;;;;;;;5134979;27;20205;-68
2023/03/09 05:34:38;;;;;;;41.63;21.67;;;;;;;;;;5134663;27;20198;-68
2023/03/09 05:37:06;;;;;;;44.70;25.10;;;;;;;;;;5134821;27;20202;-68
2023/03/09 05:39:36;;;;;;;43.00;23.90;;;;;;;;;;5135234;27;20200;-68
2023/03/09 05:42:03;;;;;;;39.78;23.58;;;;;;;;;;5134880;27;20194;-68
2023/03/09 05:44:30;;;;;;;43.10;25.25;;;;;;;;;;5134431;27;20212;-68
2023/03/09 05:46:57;;;;;;;48.70;24.25;;;;;;;;;;5134921;27;20191;-68
2023/03/09 05:49:27;;;;;;;43.90;24.90;;;;;;;;;;5134523;27;20193;-68
2023/03/09 05:51:54;;;;;;;48.28;25.13;;;;;;;;;;5134258;27;20218;-69
2023/03/09 05:54:23;;;;;;;45.33;24.23;;;;;;;;;;5134591;27;20191;-68
2023/03/09 05:56:50;;;;;;;50.33;27.05;;;;;;;;;;5134474;27;20197;-68
2023/03/09 05:59:17;;;;;;;41.45;25.83;;;;;;;;;;5134398;27;20191;-68
2023/03/09 06:01:44;;;;;;;40.40;22.27;;;;;;;;;;5134617;27;20193;-78
2023/03/09 06:04:11;;;;;;;43.65;24.48;;;;;;;;;;5134545;27;20224;-65
2023/03/09 06:06:39;;;;;;;43.70;24.98;;;;;;;;;;5134637;27;20191;-66
2023/03/09 06:09:06;;;;;;;41.65;24.00;;;;;;;;;;5134675;27;20188;-66
2023/03/09 06:11:34;;;;;;;44.30;23.13;;;;;;;;;;5134072;27;20307;-66
2023/03/09 06:14:01;;;;;;;40.80;23.80;;;;;;;;;;5133651;27;20211;-66
2023/03/09 06:16:29;;;;;;;34.38;22.33;;;;;;;;;;5134393;27;20635;-66
2023/03/09 06:18:56;;;;;;;39.90;22.73;;;;;;;;;;5134689;27;20190;-65
2023/03/09 06:21:23;;;;;;;44.17;23.85;;;;;;;;;;5134412;27;20200;-66
2023/03/09 06:23:51;;;;;;;38.33;22.33;;;;;;;;;;5134381;27;20190;-66
2023/03/09 06:26:18;;;;;;;39.67;20.60;;;;;;;;;;5134242;27;20203;-65
2023/03/09 06:28:48;;;;;;;37.75;21.42;;;;;;;;;;5133734;27;20186;-66
2023/03/09 06:31:16;;;;;;;37.85;22.00;;;;;;;;;;5133578;27;20760;-66
2023/03/09 06:33:45;;;;;;;36.53;20.88;;;;;;;;;;5133607;27;20646;-67
2023/03/09 06:36:13;;;;;;;36.05;19.20;;;;;;;;;;5134065;27;20197;-66
2023/03/09 06:38:40;;;;;;;37.85;22.45;;;;;;;;;;5134334;27;20196;-66
2023/03/09 06:41:08;;;;;;;37.22;21.88;;;;;;;;;;5134104;27;20547;-66
2023/03/09 06:43:35;;;;;;;38.67;20.23;;;;;;;;;;5133612;27;20189;-65
2023/03/09 06:46:04;;;;;;;44.40;25.15;;;;;;;;;;5134154;27;20197;-66
2023/03/09 06:48:31;;;;;;;36.63;22.08;;;;;;;;;;5133590;27;20205;-66
2023/03/09 06:50:59;;;;;;;36.10;18.70;;;;;;;;;;5133422;27;20214;-66
2023/03/09 06:53:26;;;;;;;33.78;19.10;;;;;;;;;;5133399;27;20189;-67
2023/03/09 06:55:53;;;;;;;30.92;20.20;;;;;;;;;;5133007;27;20201;-66
2023/03/09 06:58:20;;;;;;;33.45;19.30;;;;;;;;;;5133659;27;20197;-65
2023/03/09 07:00:47;;;;;;;31.17;19.63;;;;;;;;;;5133503;27;20643;-66
2023/03/09 07:03:16;;;;;;;31.70;18.75;;;;;;;;;;5133151;27;20215;-66
2023/03/09 07:05:45;;;;;;;32.40;19.27;;;;;;;;;;5133422;27;20197;-66
2023/03/09 07:08:13;;;;;;;35.45;19.90;;;;;;;;;;5133665;27;20193;-66
2023/03/09 07:10:40;;;;;;;33.53;19.02;;;;;;;;;;5133069;28;20661;-66
2023/03/09 07:13:12;;;;;;;31.23;18.70;;;;;;;;;;5133027;28;20217;-66
2023/03/09 07:15:39;;;;;;;35.95;20.35;;;;;;;;;;5133467;28;20191;-66
2023/03/09 07:18:07;;;;;;;29.33;18.00;;;;;;;;;;5133190;28;20285;-66
2023/03/09 07:20:35;;;;;;;31.05;20.10;;;;;;;;;;5133658;28;20186;-65
2023/03/09 07:23:02;;;;;;;34.30;19.52;;;;;;;;;;5133688;28;20198;-65
2023/03/09 07:25:33;;;;;;;33.28;18.98;;;;;;;;;;5133618;28;20208;-65
2023/03/09 07:28:01;;;;;;;30.30;18.85;;;;;;;;;;5133288;28;20182;-66
2023/03/09 07:30:28;;;;;;;29.80;18.75;;;;;;;;;;5133298;28;20191;-65
2023/03/09 07:32:57;;;;;;;28.40;18.20;;;;;;;;;;5132916;28;20215;-66
2023/03/09 07:35:24;;;;;;;28.80;18.08;;;;;;;;;;5132786;28;20187;-66
2023/03/09 07:37:52;;;;;;;28.35;18.75;;;;;;;;;;5132986;28;20196;-66
2023/03/09 07:40:20;;;;;;;25.20;17.25;;;;;;;;;;5133494;28;20191;-66
2023/03/09 07:42:52;;;;;;;28.60;18.05;;;;;;;;;;5133249;28;20190;-65
2023/03/09 07:45:20;;;;;;;30.17;18.10;;;;;;;;;;5133290;28;20225;-65
2023/03/09 07:47:48;;;;;;;30.50;18.05;;;;;;;;;;5133208;28;20190;-66
2023/03/09 07:50:15;;;;;;;32.53;18.95;;;;;;;;;;5133153;28;20287;-66
2023/03/09 07:52:43;;;;;;;30.27;17.98;;;;;;;;;;5132818;28;20217;-65
2023/03/09 07:55:12;;;;;;;26.67;17.77;;;;;;;;;;5132673;28;20197;-65
2023/03/09 07:57:40;;;;;;;28.25;18.08;;;;;;;;;;5132777;28;20247;-66
2023/03/09 08:00:12;;;;;;;26.58;16.80;;;;;;;;;;5133213;28;20192;-65
2023/03/09 08:02:39;;;;;;;25.85;17.92;;;;;;;;;;5133590;28;20191;-67
2023/03/09 08:05:07;;;;;;;32.05;18.00;;;;;;;;;;5132983;28;20672;-66
2023/03/09 08:07:34;;;;;;;29.65;18.25;;;;;;;;;;5134098;27;20190;-66
2023/03/09 08:10:02;;;;;;;26.05;15.95;;;;;;;;;;5136914;27;20192;-66
2023/03/09 08:12:30;;;;;;;28.95;18.48;;;;;;;;;;5136216;27;20217;-66
2023/03/09 08:14:57;;;;;;;30.85;17.17;;;;;;;;;;5136570;27;20193;-66
2023/03/09 08:17:24;;;;;;;26.77;16.27;;;;;;;;;;5136878;27;20191;-66
2023/03/09 08:19:52;;;;;;;34.70;19.08;;;;;;;;;;5136720;27;20197;-66
2023/03/09 08:22:19;;;;;;;27.38;16.67;;;;;;;;;;5136473;27;20291;-65
2023/03/09 08:24:46;;;;;;;32.17;17.80;;;;;;;;;;5136422;27;20669;-66
2023/03/09 08:27:13;;;;;;;25.85;17.00;;;;;;;;;;5136575;27;20630;-65
2023/03/09 08:29:42;;;;;;;29.75;16.75;;;;;;;;;;5136037;27;20191;-66
2023/03/09 08:32:10;;;;;;;29.17;18.15;;;;;;;;;;5136260;27;20501;-66
2023/03/09 08:34:37;;;;;;;28.45;17.70;;;;;;;;;;5136183;27;20191;-66
2023/03/09 08:37:05;;;;;;;37.95;20.75;;;;;;;;;;5136353;27;20190;-66
2023/03/09 08:39:32;;;;;;;29.05;17.25;;;;;;;;;;5136467;27;20201;-65
2023/03/09 08:41:59;;;;;;;33.28;18.83;;;;;;;;;;5136289;27;20197;-66
2023/03/09 08:44:26;;;;;;;29.45;17.23;;;;;;;;;;5136380;27;20197;-66
2023/03/09 08:46:55;;;;;;;28.85;17.52;;;;;;;;;;5136429;27;20197;-66
2023/03/09 08:49:22;;;;;;;29.02;19.83;;;;;;;;;;5135819;27;20201;-66
2023/03/09 08:51:50;;;;;;;28.83;18.52;;;;;;;;;;5135409;27;20218;-66
2023/03/09 08:54:17;;;;;;;29.77;19.30;;;;;;;;;;5135869;27;20217;-66
2023/03/09 08:56:44;;;;;;;29.88;18.20;;;;;;;;;;5135789;27;20186;-67
2023/03/09 08:59:11;;;;;;;31.13;18.15;;;;;;;;;;5135658;27;20639;-66
2023/03/09 09:01:39;;;;;;;32.17;17.95;;;;;;;;;;5135765;27;20197;-66
2023/03/09 09:04:08;;;;;;;32.47;18.60;;;;;;;;;;5135606;27;20226;-67
2023/03/09 09:06:35;;;;;;;27.33;17.13;;;;;;;;;;5136069;27;20201;-66
2023/03/09 09:09:02;;;;;;;31.15;17.17;;;;;;;;;;5135880;27;20195;-66
2023/03/09 09:11:30;;;;;;;29.70;16.52;;;;;;;;;;5135431;27;20187;-67
2023/03/09 09:13:57;;;;;;;28.00;18.10;;;;;;;;;;5135481;27;20197;-65
2023/03/09 09:16:27;;;;;;;28.75;17.98;;;;;;;;;;5135518;27;20201;-65
2023/03/09 09:18:54;;;;;;;28.10;18.13;;;;;;;;;;5135167;27;20292;-65
2023/03/09 09:21:23;;;;;;;31.10;17.42;;;;;;;;;;5135295;27;20191;-64
2023/03/09 09:23:50;;;;;;;30.45;18.58;;;;;;;;;;5135325;27;20198;-65
2023/03/09 09:26:18;;;;;;;27.65;17.35;;;;;;;;;;5135426;27;20199;-65
2023/03/09 09:28:46;;;;;;;28.35;17.90;;;;;;;;;;5135023;27;20664;-65
2023/03/09 09:31:16;;;;;;;26.80;15.55;;;;;;;;;;5135126;27;20195;-65
2023/03/09 09:33:43;;;;;;;25.58;16.40;;;;;;;;;;5134770;27;20232;-66
2023/03/09 09:36:12;;;;;;;29.45;16.65;;;;;;;;;;5134742;27;20184;-65
2023/03/09 09:38:42;;;;;;;26.23;15.85;;;;;;;;;;5135232;27;20271;-65
2023/03/09 09:41:15;;;;;;;22.58;15.55;;;;;;;;;;5135563;27;20526;-65
2023/03/09 09:43:42;;;;;;;22.17;14.73;;;;;;;;;;5135356;27;20188;-66
2023/03/09 09:46:11;;;;;;;26.02;16.50;;;;;;;;;;5135055;27;20542;-65
2023/03/09 09:48:40;;;;;;;23.38;15.55;;;;;;;;;;5135161;27;20187;-65
2023/03/09 09:51:14;;;;;;;25.45;15.35;;;;;;;;;;5134730;27;20204;-65
2023/03/09 09:53:50;;;;;;;23.38;14.95;;;;;;;;;;5134695;27;20633;-66
2023/03/09 09:56:20;;;;;;;21.65;13.80;;;;;;;;;;5134419;27;20174;-67
2023/03/09 09:58:48;;;;;;;25.15;14.98;;;;;;;;;;5134998;27;20197;-65
2023/03/09 10:01:21;;;;;;;26.60;17.20;;;;;;;;;;5134815;27;20191;-65
2023/03/09 10:03:50;;;;;;;28.42;16.52;;;;;;;;;;5134484;27;20218;-66
2023/03/09 10:06:18;;;;;;;26.10;14.55;;;;;;;;;;5134360;27;20193;-65
2023/03/09 10:08:49;;;;;;;25.88;14.57;;;;;;;;;;5134940;27;20326;-65
2023/03/09 10:11:22;;;;;;;25.10;15.52;;;;;;;;;;5134415;27;20578;-65
2023/03/09 10:13:50;;;;;;;25.05;16.42;;;;;;;;;;5134226;27;20294;-67
2023/03/09 10:16:18;;;;;;;25.55;15.73;;;;;;;;;;5134001;27;20188;-65
2023/03/09 10:18:48;;;;;;;26.08;14.70;;;;;;;;;;5134227;27;20202;-65
2023/03/09 10:21:19;;;;;;;25.92;15.93;;;;;;;;;;5134512;27;20186;-65
2023/03/09 10:23:47;;;;;;;22.60;15.27;;;;;;;;;;5134482;27;20188;-65
2023/03/09 10:26:19;;;;;;;24.27;15.70;;;;;;;;;;5133792;27;20195;-66
2023/03/09 10:28:48;;;;;;;19.92;13.80;;;;;;;;;;5134556;27;20188;-65
2023/03/09 10:31:17;;;;;;;19.10;13.18;;;;;;;;;;5133429;27;20191;-65
2023/03/09 10:33:46;;;;;;;22.80;15.80;;;;;;;;;;5133804;27;20497;-66
2023/03/09 10:36:18;;;;;;;22.63;13.98;;;;;;;;;;5133719;27;20203;-65
2023/03/09 10:38:45;;;;;;;21.92;14.20;;;;;;;;;;5134292;27;20180;-65
2023/03/09 10:41:16;;;;;;;17.63;13.52;;;;;;;;;;5134258;27;20191;-65
2023/03/09 10:43:43;;;;;;;21.85;13.43;;;;;;;;;;5134302;27;20194;-66
2023/03/09 10:46:14;;;;;;;18.05;13.00;;;;;;;;;;5133964;27;20286;-65
2023/03/09 10:48:41;;;;;;;17.77;12.48;;;;;;;;;;5134228;27;20180;-65
2023/03/09 10:51:22;;;;;;;18.33;11.27;;;;;;;;;;5133451;27;20677;-65
2023/03/09 10:53:49;;;;;;;17.13;11.88;;;;;;;;;;5133496;27;20246;-65
2023/03/09 10:56:20;;;;;;;22.27;13.93;;;;;;;;;;5133496;27;20196;-65
2023/03/09 10:58:48;;;;;;;18.70;13.10;;;;;;;;;;5133937;27;20180;-65
2023/03/09 11:01:22;;;;;;;17.05;12.23;;;;;;;;;;5133487;27;20257;-65
2023/03/09 11:03:50;;;;;;;18.05;11.52;;;;;;;;;;5133288;27;20566;-65
2023/03/09 11:06:29;;;;;;;23.42;12.82;;;;;;;;;;5134155;27;20191;-64
2023/03/09 11:09:05;;;;;;;21.75;13.43;;;;;;;;;;5133970;27;20205;-65
2023/03/09 11:11:34;;;;;;;20.90;13.55;;;;;;;;;;5133567;27;20186;-65
2023/03/09 11:14:02;;;;;;;25.67;13.60;;;;;;;;;;5133733;28;20211;-65
2023/03/09 11:16:34;;;;;;;18.65;11.70;;;;;;;;;;5133310;28;20632;-65
2023/03/09 11:19:12;;;;;;;25.42;15.10;;;;;;;;;;5134031;28;20526;-65
2023/03/09 11:21:41;;;;;;;23.33;11.77;;;;;;;;;;5134000;28;20180;-65
2023/03/09 11:24:08;;;;;;;19.17;12.80;;;;;;;;;;5133399;28;20201;-65
2023/03/09 11:26:39;;;;;;;17.52;11.63;;;;;;;;;;5134021;28;20191;-65
2023/03/09 11:29:13;;;;;;;19.02;12.00;;;;;;;;;;5133718;28;20198;-64
2023/03/09 11:31:42;;;;;;;19.67;12.68;;;;;;;;;;5131680;28;20186;-65
2023/03/09 11:34:13;;;;;;;23.05;13.25;;;;;;;;;;5133205;28;20670;-65
2023/03/09 11:36:43;;;;;;;21.65;13.27;;;;;;;;;;5132877;28;20565;-66
2023/03/09 11:39:14;;;;;;;20.55;13.65;;;;;;;;;;5133164;28;20278;-65
2023/03/09 11:41:44;;;;;;;18.13;12.57;;;;;;;;;;5134705;27;20518;-65
2023/03/09 11:44:14;;;;;;;19.73;12.13;;;;;;;;;;5137525;27;20201;-65
2023/03/09 11:46:42;;;;;;;19.55;12.85;;;;;;;;;;5137488;27;20632;-66
2023/03/09 11:49:14;;;;;;;19.55;12.93;;;;;;;;;;5137386;27;20603;-65
2023/03/09 11:51:43;;;;;;;21.05;13.25;;;;;;;;;;5136969;27;20194;-65
2023/03/09 11:54:18;;;;;;;18.90;11.55;;;;;;;;;;5136727;27;20212;-66
2023/03/09 11:56:47;;;;;;;21.00;13.07;;;;;;;;;;5136828;27;20174;-66
2023/03/09 11:59:18;;;;;;;18.33;13.05;;;;;;;;;;5137356;27;20221;-65
2023/03/09 12:01:47;;;;;;;20.08;12.60;;;;;;;;;;5136785;27;20179;-65
2023/03/09 12:04:16;;;;;;;20.02;13.32;;;;;;;;;;5137007;27;20222;-65
2023/03/09 12:06:45;;;;;;;20.13;12.40;;;;;;;;;;5136801;27;20195;-65
2023/03/09 12:09:18;;;;;;;20.15;14.80;;;;;;;;;;5137039;27;20201;-65
2023/03/09 12:11:50;;;;;;;19.30;13.50;;;;;;;;;;5136983;27;20614;-65
2023/03/09 12:14:20;;;;;;;20.13;12.60;;;;;;;;;;5136897;27;20207;-65
2023/03/09 12:16:48;;;;;;;18.60;13.40;;;;;;;;;;5136203;27;20184;-66
2023/03/09 12:19:17;;;;;;;21.08;14.40;;;;;;;;;;5136972;27;20194;-65
2023/03/09 12:21:46;;;;;;;19.40;14.38;;;;;;;;;;5136734;27;20190;-65
2023/03/09 12:24:21;;;;;;;20.65;14.70;;;;;;;;;;5136568;27;20653;-65
2023/03/09 12:26:58;;;;;;;23.00;14.65;;;;;;;;;;5136827;27;20184;-65
2023/03/09 12:29:34;;;;;;;22.63;14.07;;;;;;;;;;5136762;27;20186;-66
2023/03/09 12:32:19;;;;;;;19.23;12.82;;;;;;;;;;5136496;27;20197;-66
2023/03/09 12:34:48;;;;;;;23.38;13.07;;;;;;;;;;5136350;27;20753;-66
2023/03/09 12:37:33;;;;;;;21.17;13.93;;;;;;;;;;5136203;27;20210;-65
2023/03/09 12:40:01;;;;;;;20.35;13.38;;;;;;;;;;5122755;27;20545;-65
2023/03/09 12:42:31;;;;;;;19.58;14.07;;;;;;;;;;5136148;27;20191;-65
2023/03/09 12:45:01;;;;;;;19.92;14.52;;;;;;;;;;5136510;27;20188;-65
2023/03/09 12:47:36;;;;;;;16.85;12.10;;;;;;;;;;5136068;27;20199;-66
2023/03/09 12:50:06;;;;;;;22.85;12.98;;;;;;;;;;5136941;27;20488;-65
2023/03/09 12:52:42;;;;;;;20.67;13.75;;;;;;;;;;5135492;27;20610;-65
2023/03/09 12:55:14;;;;;;;20.30;13.73;;;;;;;;;;5135674;27;20180;-65
2023/03/09 12:57:47;;;;;;;21.55;13.82;;;;;;;;;;5135721;27;20551;-65
2023/03/09 13:00:27;;;;;;;21.20;13.95;;;;;;;;;;5136664;27;20191;-65
2023/03/09 13:02:57;;;;;;;19.73;13.15;;;;;;;;;;5135294;27;20199;-66
2023/03/09 13:05:32;;;;;;;19.40;13.90;;;;;;;;;;5136194;27;20204;-66
2023/03/09 13:08:01;;;;;;;21.73;13.07;;;;;;;;;;5136387;27;20193;-65
2023/03/09 13:10:30;;;;;;;23.40;14.20;;;;;;;;;;5136404;27;20201;-65
2023/03/09 13:13:19;;;;;;;20.38;13.20;;;;;;;;;;5135227;27;20647;-66
2023/03/09 13:15:46;;;;;;;21.73;14.10;;;;;;;;;;5135073;27;20306;-66
2023/03/09 13:18:26;;;;;;;22.42;13.85;;;;;;;;;;5135544;27;20300;-66
2023/03/09 13:20:53;;;;;;;22.25;13.70;;;;;;;;;;5136164;27;20183;-65
2023/03/09 13:23:22;;;;;;;20.27;13.43;;;;;;;;;;5135342;27;20199;-66
2023/03/09 13:25:50;;;;;;;21.25;13.70;;;;;;;;;;5135742;27;20312;-65
2023/03/09 13:28:31;;;;;;;24.85;16.15;;;;;;;;;;5135822;27;20521;-65
2023/03/09 13:31:00;;;;;;;24.20;14.02;;;;;;;;;;5135914;27;20221;-65
2023/03/09 13:33:30;;;;;;;20.65;14.30;;;;;;;;;;5134919;27;20212;-66
2023/03/09 13:35:59;;;;;;;20.08;13.10;;;;;;;;;;5135080;27;20195;-65
2023/03/09 13:38:31;;;;;;;19.50;13.77;;;;;;;;;;5134790;27;20195;-65
2023/03/09 13:40:59;;;;;;;25.42;14.25;;;;;;;;;;5135616;27;20206;-65
2023/03/09 13:43:28;;;;;;;25.45;13.23;;;;;;;;;;5135282;27;20195;-66
2023/03/09 13:46:08;;;;;;;20.42;13.32;;;;;;;;;;5135543;27;20656;-65
2023/03/09 13:48:37;;;;;;;18.88;14.23;;;;;;;;;;5135520;27;20272;-65
2023/03/09 13:51:04;;;;;;;19.88;13.32;;;;;;;;;;5135221;27;20187;-66
2023/03/09 13:53:31;;;;;;;21.38;12.60;;;;;;;;;;5134325;27;20214;-66
2023/03/09 13:56:00;;;;;;;20.83;13.00;;;;;;;;;;5134704;27;20664;-65
2023/03/09 13:58:28;;;;;;;18.17;13.48;;;;;;;;;;5134675;27;20199;-65
2023/03/09 14:00:56;;;;;;;23.95;13.15;;;;;;;;;;5135237;27;20196;-65
2023/03/09 14:03:26;;;;;;;19.98;14.02;;;;;;;;;;5134350;27;20230;-67
2023/03/09 14:05:58;;;;;;;21.88;14.77;;;;;;;;;;5133885;27;20179;-65
2023/03/09 14:08:26;;;;;;;24.75;13.65;;;;;;;;;;5135102;27;20185;-66
2023/03/09 14:10:54;;;;;;;25.25;14.52;;;;;;;;;;5134757;27;20662;-65
2023/03/09 14:13:22;;;;;;;23.05;15.45;;;;;;;;;;5134098;27;20185;-65
2023/03/09 14:15:59;;;;;;;21.88;13.45;;;;;;;;;;5134438;27;20201;-67
2023/03/09 14:18:34;;;;;;;20.92;13.73;;;;;;;;;;5134467;27;20191;-65
2023/03/09 14:21:01;;;;;;;23.08;15.55;;;;;;;;;;5134777;27;20183;-66
2023/03/09 14:23:38;;;;;;;24.77;15.00;;;;;;;;;;5134223;27;20205;-66
2023/03/09 14:26:05;;;;;;;26.88;15.95;;;;;;;;;;5134529;27;20205;-66